Time;durP1;ratioP1;P1;durP2;ratioP2;P2;SDS_P1;SDS_P2;PMS_P1;PMS_P2;Temp;Humidity;BMP_temperature;BMP_pressure;BME280_temperature;BME280_humidity;BME280_pressure;Samples;Min_cycle;Max_cycle;Signal;HPM_P1;HPM_P2
2023/10/05 00:00:27;;;;;;;11.55;4.57;;;16.00;99.90;;;;;;2076199;28;20113;-72
2023/10/05 00:01:24;;;;;;;12.02;4.80;;;16.00;99.90;;;;;;2077069;28;20467;-74
2023/10/05 00:02:25;;;;;;;12.60;4.32;;;16.10;99.90;;;;;;2077137;28;20028;-72
2023/10/05 00:03:25;;;;;;;10.18;4.15;;;16.00;99.90;;;;;;2069092;28;20132;-73
2023/10/05 00:04:39;;;;;;;12.20;5.13;;;16.00;99.90;;;;;;2069836;28;20597;-73
2023/10/05 00:05:40;;;;;;;9.77;3.90;;;16.00;99.90;;;;;;2077140;28;20504;-73
2023/10/05 00:06:42;;;;;;;9.48;3.88;;;16.00;99.90;;;;;;2068026;28;20547;-74
2023/10/05 00:07:43;;;;;;;8.80;3.95;;;16.00;99.90;;;;;;2067458;28;20023;-74
2023/10/05 00:08:47;;;;;;;15.02;5.13;;;16.00;99.90;;;;;;2067735;28;20089;-73
2023/10/05 00:09:48;;;;;;;10.45;4.28;;;16.00;99.90;;;;;;2069371;28;20568;-73
2023/10/05 00:10:48;;;;;;;11.85;4.38;;;16.00;99.90;;;;;;2075939;28;20395;-73
2023/10/05 00:11:49;;;;;;;9.35;4.00;;;16.00;99.90;;;;;;2076018;28;20036;-74
2023/10/05 00:12:50;;;;;;;7.07;3.58;;;15.90;99.90;;;;;;2075298;28;20033;-73
2023/10/05 00:13:52;;;;;;;10.27;4.40;;;15.90;99.90;;;;;;2075453;28;20042;-73
2023/10/05 00:16:05;;;;;;;9.93;4.85;;;15.90;99.90;;;;;;2075777;28;20021;-74
2023/10/05 00:17:08;;;;;;;7.95;3.65;;;15.90;99.90;;;;;;2076816;28;20056;-73
2023/10/05 00:18:10;;;;;;;12.10;3.97;;;15.90;99.90;;;;;;2078438;28;20017;-74
2023/10/05 00:19:12;;;;;;;9.02;4.22;;;15.90;99.90;;;;;;2077228;28;20017;-73
2023/10/05 00:20:24;;;;;;;10.55;4.90;;;15.90;99.90;;;;;;2076466;28;20026;-73
2023/10/05 00:21:26;;;;;;;9.65;3.92;;;15.90;99.90;;;;;;2076067;28;20029;-74
2023/10/05 00:22:26;;;;;;;9.73;3.70;;;15.80;99.90;;;;;;2076158;28;20120;-73
2023/10/05 00:23:27;;;;;;;9.98;4.38;;;15.80;99.90;;;;;;2076024;28;20025;-74
2023/10/05 00:24:31;;;;;;;14.27;4.40;;;15.80;99.90;;;;;;2076058;28;20380;-74
2023/10/05 00:25:33;;;;;;;9.00;4.25;;;15.90;99.90;;;;;;2074247;28;20034;-73
2023/10/05 00:26:34;;;;;;;8.68;3.88;;;15.90;99.90;;;;;;2075557;28;20105;-73
2023/10/05 00:27:36;;;;;;;10.75;4.55;;;15.90;99.90;;;;;;2068472;28;20581;-74
2023/10/05 00:28:37;;;;;;;11.73;4.32;;;15.80;99.90;;;;;;2069445;28;20091;-74
2023/10/05 00:29:41;;;;;;;12.45;4.90;;;15.80;99.90;;;;;;2076905;28;20052;-74
2023/10/05 00:30:42;;;;;;;8.80;3.75;;;15.80;99.90;;;;;;2075767;28;20056;-74
2023/10/05 00:31:44;;;;;;;10.45;4.15;;;15.80;99.90;;;;;;2067448;28;20125;-73
2023/10/05 00:32:49;;;;;;;10.15;3.92;;;15.80;99.90;;;;;;2067093;28;20033;-73
2023/10/05 00:33:55;;;;;;;10.93;4.72;;;15.80;99.90;;;;;;2076365;28;20028;-74
2023/10/05 00:35:11;;;;;;;15.93;4.55;;;15.80;99.90;;;;;;2068025;28;20065;-74
2023/10/05 00:36:13;;;;;;;10.60;4.22;;;15.80;99.90;;;;;;2070417;28;20058;-73
2023/10/05 00:37:14;;;;;;;10.85;4.40;;;15.80;99.90;;;;;;2077722;28;20036;-74
2023/10/05 00:38:16;;;;;;;8.50;3.53;;;15.80;99.90;;;;;;2076065;28;20132;-74
2023/10/05 00:39:21;;;;;;;12.38;4.20;;;15.80;99.90;;;;;;2076945;28;20041;-73
2023/10/05 00:40:35;;;;;;;8.63;3.80;;;15.80;99.90;;;;;;2077129;28;20476;-74
2023/10/05 00:41:37;;;;;;;8.77;3.78;;;15.80;99.90;;;;;;2068269;28;20117;-73
2023/10/05 00:42:38;;;;;;;8.02;3.90;;;15.80;99.90;;;;;;2067318;28;20021;-73
2023/10/05 00:43:38;;;;;;;10.68;4.03;;;15.80;99.90;;;;;;2068907;28;20077;-73
2023/10/05 00:44:42;;;;;;;14.43;3.85;;;15.80;99.90;;;;;;2072232;28;20512;-73
2023/10/05 00:45:46;;;;;;;8.88;4.20;;;15.80;99.90;;;;;;2077557;28;20084;-73
2023/10/05 00:46:50;;;;;;;12.18;4.05;;;15.80;99.90;;;;;;2076162;28;20472;-74
2023/10/05 00:47:52;;;;;;;10.32;3.60;;;15.80;99.90;;;;;;2076983;28;20030;-74
2023/10/05 00:50:12;;;;;;;8.73;4.05;;;15.70;99.90;;;;;;2077117;28;20120;-73
2023/10/05 00:51:17;;;;;;;11.25;4.38;;;15.80;99.90;;;;;;2077058;28;20041;-74
2023/10/05 00:52:24;;;;;;;9.85;4.10;;;15.70;99.90;;;;;;2076856;28;20095;-73
2023/10/05 00:53:28;;;;;;;11.38;3.80;;;15.70;99.90;;;;;;2077043;28;20476;-74
2023/10/05 00:54:31;;;;;;;9.07;3.88;;;15.70;99.90;;;;;;2077228;28;20032;-74
2023/10/05 00:55:34;;;;;;;9.38;4.40;;;15.70;99.90;;;;;;2067317;28;20042;-74
2023/10/05 00:56:35;;;;;;;8.70;3.83;;;15.70;99.90;;;;;;2060678;28;20113;-74
2023/10/05 00:57:37;;;;;;;8.73;3.60;;;15.70;99.90;;;;;;2069593;28;20027;-73
2023/10/05 00:58:43;;;;;;;10.52;3.55;;;15.80;99.90;;;;;;2067041;28;20050;-73
2023/10/05 00:59:47;;;;;;;9.23;3.83;;;15.70;99.90;;;;;;2069298;28;20018;-74
2023/10/05 01:00:51;;;;;;;10.07;3.85;;;15.70;99.90;;;;;;2076308;28;20049;-73
2023/10/05 01:03:22;;;;;;;9.68;3.83;;;15.70;99.90;;;;;;2075837;28;20009;-73
2023/10/05 01:04:26;;;;;;;9.30;3.70;;;15.70;99.90;;;;;;2077343;28;20036;-74
2023/10/05 01:05:35;;;;;;;10.00;4.03;;;15.70;99.90;;;;;;2075975;28;20026;-73
2023/10/05 01:06:45;;;;;;;8.63;4.28;;;15.70;99.90;;;;;;2074495;28;20029;-74
2023/10/05 01:07:49;;;;;;;9.40;3.80;;;15.70;99.90;;;;;;2077714;28;20021;-74
2023/10/05 01:08:59;;;;;;;10.48;3.83;;;15.70;99.90;;;;;;2077746;28;20020;-74
2023/10/05 01:11:09;;;;;;;8.20;3.47;;;15.70;99.90;;;;;;2076543;28;20042;-74
2023/10/05 01:13:30;;;;;;;11.27;4.45;;;15.70;99.90;;;;;;2066829;28;20093;-73
2023/10/05 01:14:38;;;;;;;8.38;3.42;;;15.70;99.90;;;;;;2076644;28;20461;-74
2023/10/05 01:15:38;;;;;;;10.55;4.10;;;15.60;99.90;;;;;;2075587;28;20152;-74
2023/10/05 01:16:39;;;;;;;10.23;3.70;;;15.70;99.90;;;;;;2076390;28;20041;-74
2023/10/05 01:17:40;;;;;;;9.60;3.38;;;15.60;99.90;;;;;;2069848;28;20022;-74
2023/10/05 01:18:41;;;;;;;8.32;3.75;;;15.70;99.90;;;;;;2069395;28;20018;-74
2023/10/05 01:19:43;;;;;;;7.78;3.50;;;15.70;99.90;;;;;;2075760;28;20039;-74
2023/10/05 01:20:43;;;;;;;13.43;3.75;;;15.70;99.90;;;;;;2076034;28;20072;-74
2023/10/05 01:21:44;;;;;;;8.82;3.45;;;15.70;99.90;;;;;;2068553;28;20662;-73
2023/10/05 01:22:48;;;;;;;12.20;4.03;;;15.70;99.90;;;;;;2069093;28;20045;-74
2023/10/05 01:23:49;;;;;;;11.18;3.70;;;15.70;99.90;;;;;;2075641;28;20024;-73
2023/10/05 01:24:50;;;;;;;10.10;4.35;;;15.70;99.90;;;;;;2075303;28;20018;-73
2023/10/05 01:25:50;;;;;;;8.43;4.05;;;15.70;99.90;;;;;;2075485;28;20029;-74
2023/10/05 01:26:51;;;;;;;8.40;3.70;;;15.70;99.90;;;;;;2077857;28;20044;-73
2023/10/05 01:27:52;;;;;;;10.57;3.92;;;15.70;99.90;;;;;;2076473;28;20645;-74
2023/10/05 01:28:52;;;;;;;8.18;3.85;;;15.70;99.90;;;;;;2076341;28;20036;-73
2023/10/05 01:29:53;;;;;;;6.60;3.45;;;15.70;99.90;;;;;;2076649;28;20087;-74
2023/10/05 01:30:55;;;;;;;8.23;3.67;;;15.70;99.90;;;;;;2077435;28;20033;-73
2023/10/05 01:31:56;;;;;;;12.68;4.03;;;15.60;99.90;;;;;;2076200;28;20034;-74
2023/10/05 01:32:57;;;;;;;10.23;3.90;;;15.60;99.90;;;;;;2076183;28;20097;-73
2023/10/05 01:33:59;;;;;;;9.85;3.90;;;15.60;99.90;;;;;;2076335;28;20480;-74
2023/10/05 01:35:00;;;;;;;8.13;3.90;;;15.60;99.90;;;;;;2076325;28;20116;-73
2023/10/05 01:36:03;;;;;;;12.18;4.00;;;15.60;99.90;;;;;;2075785;28;20030;-75
2023/10/05 01:37:04;;;;;;;10.73;3.78;;;15.60;99.90;;;;;;2078027;28;20109;-74
2023/10/05 01:38:05;;;;;;;8.18;3.30;;;15.60;99.90;;;;;;2077597;28;20032;-73
2023/10/05 01:39:09;;;;;;;7.15;3.05;;;15.60;99.90;;;;;;2076487;28;20063;-73
2023/10/05 01:40:30;;;;;;;10.93;3.60;;;15.60;99.90;;;;;;2075959;28;20022;-73
2023/10/05 01:41:31;;;;;;;13.48;3.92;;;15.60;99.90;;;;;;2077138;28;20030;-74
2023/10/05 01:42:32;;;;;;;11.07;3.58;;;15.60;99.90;;;;;;2077243;28;20116;-74
2023/10/05 01:43:38;;;;;;;13.80;4.07;;;15.60;99.90;;;;;;2075438;28;20048;-73
2023/10/05 01:44:41;;;;;;;8.30;3.38;;;15.60;99.90;;;;;;2076055;28;20041;-72
2023/10/05 01:45:44;;;;;;;7.90;3.92;;;15.60;99.90;;;;;;2073241;28;20543;-72
2023/10/05 01:46:45;;;;;;;11.15;3.90;;;15.60;99.90;;;;;;2077458;28;20606;-73
2023/10/05 01:47:45;;;;;;;10.90;4.30;;;15.60;99.90;;;;;;2076414;28;20052;-72
2023/10/05 01:48:46;;;;;;;9.57;4.13;;;15.60;99.90;;;;;;2067934;28;20382;-72
2023/10/05 01:49:48;;;;;;;13.38;4.15;;;15.60;99.90;;;;;;2068486;28;20033;-73
2023/10/05 01:50:50;;;;;;;12.35;3.55;;;15.60;99.90;;;;;;2075613;28;20029;-74
2023/10/05 01:51:52;;;;;;;9.55;3.50;;;15.60;99.90;;;;;;2076037;28;20025;-73
2023/10/05 01:53:02;;;;;;;7.30;3.70;;;15.60;99.90;;;;;;2076368;28;20033;-72
2023/10/05 01:54:11;;;;;;;8.50;3.03;;;15.60;99.90;;;;;;2075735;28;20032;-73
2023/10/05 01:55:14;;;;;;;11.93;3.60;;;15.60;99.90;;;;;;2075269;28;20021;-72
2023/10/05 01:56:20;;;;;;;9.52;3.30;;;15.60;99.90;;;;;;2075177;28;20102;-72
2023/10/05 01:57:21;;;;;;;8.95;3.90;;;15.60;99.90;;;;;;2076112;28;20017;-73
2023/10/05 01:58:26;;;;;;;9.90;3.75;;;15.60;99.90;;;;;;2076419;28;20576;-72
2023/10/05 01:59:28;;;;;;;8.75;3.83;;;15.60;99.90;;;;;;2076318;28;20025;-74
2023/10/05 02:00:31;;;;;;;7.35;3.40;;;15.60;99.90;;;;;;2066542;28;20026;-73
2023/10/05 02:01:36;;;;;;;8.50;3.10;;;15.60;99.90;;;;;;2067578;28;20398;-73
2023/10/05 02:02:37;;;;;;;11.45;3.75;;;15.60;99.90;;;;;;2074682;28;20044;-72
2023/10/05 02:03:38;;;;;;;6.68;3.20;;;15.60;99.90;;;;;;2076788;28;20133;-73
2023/10/05 02:04:49;;;;;;;14.23;3.97;;;15.60;99.90;;;;;;2078020;28;20536;-73
2023/10/05 02:05:53;;;;;;;6.97;3.20;;;15.60;99.90;;;;;;2076020;28;20092;-72
2023/10/05 02:06:53;;;;;;;8.27;3.30;;;15.60;99.90;;;;;;2075285;28;20491;-73
2023/10/05 02:07:54;;;;;;;9.13;4.13;;;15.60;99.90;;;;;;2075447;28;20391;-73
2023/10/05 02:08:54;;;;;;;10.13;3.67;;;15.50;99.90;;;;;;2075764;28;20026;-73
2023/10/05 02:09:55;;;;;;;7.78;3.30;;;15.60;99.90;;;;;;2075593;28;20491;-73
2023/10/05 02:10:55;;;;;;;8.77;3.72;;;15.60;99.90;;;;;;2077562;28;20086;-72
2023/10/05 02:12:02;;;;;;;8.18;3.58;;;15.60;99.90;;;;;;2074918;28;20033;-73
2023/10/05 02:13:02;;;;;;;14.05;3.40;;;15.60;99.90;;;;;;2076484;28;20049;-73
2023/10/05 02:14:04;;;;;;;7.03;3.53;;;15.50;99.90;;;;;;2076111;28;20030;-72
2023/10/05 02:15:13;;;;;;;10.50;3.42;;;15.50;99.90;;;;;;2073646;28;20380;-72
2023/10/05 02:16:32;;;;;;;9.65;3.40;;;15.50;99.90;;;;;;2074853;28;20028;-73
2023/10/05 02:17:40;;;;;;;6.28;3.55;;;15.50;99.90;;;;;;2074284;28;20022;-72
2023/10/05 02:18:41;;;;;;;11.85;4.20;;;15.40;99.90;;;;;;2067544;28;20032;-72
2023/10/05 02:19:42;;;;;;;7.75;3.40;;;15.40;99.90;;;;;;2069043;28;20034;-72
2023/10/05 02:20:45;;;;;;;8.00;3.20;;;15.40;99.90;;;;;;2075334;28;20026;-73
2023/10/05 02:21:46;;;;;;;6.70;2.72;;;15.50;99.90;;;;;;2075084;28;20017;-73
2023/10/05 02:22:47;;;;;;;7.63;3.25;;;15.40;99.90;;;;;;2076564;28;20053;-72
2023/10/05 02:23:51;;;;;;;9.05;3.20;;;15.40;99.90;;;;;;2075973;28;20027;-72
2023/10/05 02:24:54;;;;;;;9.50;3.95;;;15.40;99.90;;;;;;2074974;28;20513;-72
2023/10/05 02:26:09;;;;;;;8.82;3.50;;;15.40;99.90;;;;;;2076521;28;20045;-74
2023/10/05 02:27:11;;;;;;;8.98;3.15;;;15.40;99.90;;;;;;2075967;28;20030;-73
2023/10/05 02:28:22;;;;;;;9.30;4.07;;;15.40;99.90;;;;;;2075860;28;20050;-72
2023/10/05 02:29:24;;;;;;;11.20;3.55;;;15.40;99.90;;;;;;2075545;28;20033;-73
2023/10/05 02:30:27;;;;;;;10.30;3.60;;;15.40;99.90;;;;;;2074516;28;20045;-72
2023/10/05 02:31:28;;;;;;;6.25;3.22;;;15.40;99.90;;;;;;2075621;28;20057;-72
2023/10/05 02:32:29;;;;;;;8.35;3.15;;;15.40;99.90;;;;;;2073889;28;20579;-72
2023/10/05 02:33:32;;;;;;;10.75;3.25;;;15.40;99.90;;;;;;2076002;28;20026;-73
2023/10/05 02:36:20;;;;;;;9.10;3.40;;;15.40;99.90;;;;;;2063830;28;20057;-73
2023/10/05 02:37:22;;;;;;;9.65;3.80;;;15.30;99.90;;;;;;2074195;28;20029;-72
2023/10/05 02:38:23;;;;;;;8.10;3.25;;;15.30;99.90;;;;;;2075080;28;20025;-72
2023/10/05 02:39:24;;;;;;;9.75;3.08;;;15.30;99.90;;;;;;2076476;28;20021;-73
2023/10/05 02:40:45;;;;;;;6.93;3.33;;;15.30;99.90;;;;;;2076356;28;20033;-72
2023/10/05 02:41:46;;;;;;;8.55;3.42;;;15.40;99.90;;;;;;2075412;28;20022;-73
2023/10/05 02:42:51;;;;;;;6.85;3.58;;;15.30;99.90;;;;;;2074949;28;20037;-73
2023/10/05 02:43:54;;;;;;;8.77;3.17;;;15.30;99.90;;;;;;2074880;28;20025;-72
2023/10/05 02:44:56;;;;;;;11.77;4.15;;;15.30;99.90;;;;;;2074890;28;20045;-73
2023/10/05 02:46:10;;;;;;;8.23;3.15;;;15.40;99.90;;;;;;2067704;28;20066;-73
2023/10/05 02:47:13;;;;;;;9.52;3.92;;;15.40;99.90;;;;;;2069466;28;20034;-73
2023/10/05 02:48:14;;;;;;;5.45;3.28;;;15.30;99.90;;;;;;2074506;28;20528;-72
2023/10/05 02:49:19;;;;;;;8.95;3.55;;;15.30;99.90;;;;;;2076412;28;20025;-72
2023/10/05 02:50:20;;;;;;;11.00;3.85;;;15.30;99.90;;;;;;2075751;28;20025;-73
2023/10/05 02:51:21;;;;;;;12.90;3.53;;;15.30;99.90;;;;;;2074785;28;20021;-72
2023/10/05 02:52:23;;;;;;;9.02;3.33;;;15.30;99.90;;;;;;2074908;28;20469;-72
2023/10/05 02:53:25;;;;;;;9.63;3.55;;;15.40;99.90;;;;;;2075355;28;20021;-72
2023/10/05 02:54:27;;;;;;;6.93;2.85;;;15.40;99.90;;;;;;2076355;28;20021;-73
2023/10/05 02:55:32;;;;;;;7.28;3.42;;;15.30;99.90;;;;;;2073796;28;20054;-72
2023/10/05 02:56:33;;;;;;;11.25;3.40;;;15.30;99.90;;;;;;2074984;28;20022;-73
2023/10/05 02:57:34;;;;;;;10.60;3.80;;;15.40;99.90;;;;;;2077959;28;20017;-73
2023/10/05 02:58:34;;;;;;;8.93;3.22;;;15.40;99.90;;;;;;2075412;28;20025;-73
2023/10/05 02:59:35;;;;;;;7.53;3.38;;;15.40;99.90;;;;;;2076135;28;20075;-73
2023/10/05 03:00:37;;;;;;;8.45;3.25;;;15.30;99.90;;;;;;2075459;28;20064;-73
2023/10/05 03:01:38;;;;;;;8.23;3.70;;;15.30;99.90;;;;;;2075695;28;20075;-73
2023/10/05 03:02:45;;;;;;;9.65;3.15;;;15.30;99.90;;;;;;2076507;28;20018;-72
2023/10/05 03:03:47;;;;;;;7.25;3.20;;;15.30;99.90;;;;;;2077394;28;20136;-72
2023/10/05 03:04:48;;;;;;;9.68;3.60;;;15.30;99.90;;;;;;2077189;28;20084;-73
2023/10/05 03:05:49;;;;;;;13.05;3.15;;;15.30;99.90;;;;;;2077727;28;20079;-73
2023/10/05 03:06:52;;;;;;;9.23;3.60;;;15.30;99.90;;;;;;2068905;28;20524;-72
2023/10/05 03:07:53;;;;;;;9.45;3.35;;;15.30;99.90;;;;;;2066574;28;20041;-72
2023/10/05 03:08:57;;;;;;;7.82;3.63;;;15.30;99.90;;;;;;2076282;28;20036;-72
2023/10/05 03:09:59;;;;;;;9.50;3.38;;;15.30;99.90;;;;;;2077104;28;20026;-72
2023/10/05 03:10:59;;;;;;;11.73;3.95;;;15.30;99.90;;;;;;2078316;28;20689;-72
2023/10/05 03:12:00;;;;;;;10.63;3.67;;;15.30;99.90;;;;;;2077052;28;20411;-73
2023/10/05 03:13:04;;;;;;;8.10;3.50;;;15.30;99.90;;;;;;2078773;28;20039;-72
2023/10/05 03:14:09;;;;;;;7.85;3.10;;;15.30;99.90;;;;;;2070000;28;20409;-73
2023/10/05 03:15:12;;;;;;;12.05;3.35;;;15.30;99.90;;;;;;2067536;28;20026;-72
2023/10/05 03:16:16;;;;;;;7.97;3.58;;;15.30;99.90;;;;;;2069076;28;20141;-72
2023/10/05 03:17:24;;;;;;;8.93;3.92;;;15.30;99.90;;;;;;2067427;28;20045;-73
2023/10/05 03:18:26;;;;;;;6.15;3.28;;;15.30;99.90;;;;;;2077686;28;20026;-72
2023/10/05 03:19:26;;;;;;;9.35;3.58;;;15.30;99.90;;;;;;2077328;28;20029;-72
2023/10/05 03:20:29;;;;;;;9.30;3.72;;;15.30;99.90;;;;;;2078164;28;20069;-71
2023/10/05 03:21:30;;;;;;;11.82;3.78;;;15.30;99.90;;;;;;2076769;28;20105;-72
2023/10/05 03:22:31;;;;;;;8.02;3.33;;;15.30;99.90;;;;;;2076534;28;20077;-72
2023/10/05 03:23:32;;;;;;;9.30;3.60;;;15.30;99.90;;;;;;2078086;28;20872;-74
2023/10/05 03:24:33;;;;;;;10.20;3.47;;;15.30;99.90;;;;;;2077570;28;20377;-72
2023/10/05 03:25:34;;;;;;;9.57;3.50;;;15.30;99.90;;;;;;2078508;28;20037;-72
2023/10/05 03:26:34;;;;;;;9.40;3.28;;;15.30;99.90;;;;;;2077466;28;20071;-72
2023/10/05 03:27:36;;;;;;;7.03;3.65;;;15.30;99.90;;;;;;2076660;28;20037;-72
2023/10/05 03:28:37;;;;;;;8.35;3.45;;;15.30;99.90;;;;;;2070140;28;20029;-73
2023/10/05 03:29:38;;;;;;;8.73;3.05;;;15.30;99.90;;;;;;2069552;28;20073;-73
2023/10/05 03:30:38;;;;;;;7.28;3.00;;;15.30;99.90;;;;;;2077359;28;20041;-74
2023/10/05 03:32:04;;;;;;;9.23;3.95;;;15.30;99.90;;;;;;2070047;28;20028;-73
2023/10/05 03:33:05;;;;;;;11.75;3.72;;;15.30;99.90;;;;;;2070372;28;20021;-72
2023/10/05 03:34:08;;;;;;;10.85;3.55;;;15.20;99.90;;;;;;2078229;28;20032;-72
2023/10/05 03:35:09;;;;;;;12.15;3.35;;;15.30;99.90;;;;;;2070867;28;20113;-73
2023/10/05 03:36:14;;;;;;;7.07;3.33;;;15.30;99.90;;;;;;2069515;28;20636;-73
2023/10/05 03:37:15;;;;;;;14.18;4.18;;;15.30;99.90;;;;;;2062805;28;20050;-73
2023/10/05 03:38:19;;;;;;;7.22;3.60;;;15.30;99.90;;;;;;2068266;28;20027;-73
2023/10/05 03:39:23;;;;;;;9.57;3.30;;;15.30;99.90;;;;;;2069230;28;20580;-73
2023/10/05 03:40:25;;;;;;;8.80;3.78;;;15.30;99.90;;;;;;2068717;28;20030;-73
2023/10/05 03:41:26;;;;;;;10.05;3.25;;;15.30;99.90;;;;;;2075665;28;20072;-73
2023/10/05 03:42:26;;;;;;;14.77;3.78;;;15.30;99.90;;;;;;2076734;28;20119;-73
2023/10/05 03:43:27;;;;;;;14.05;3.47;;;15.20;99.90;;;;;;2078641;28;20026;-73
2023/10/05 03:44:27;;;;;;;7.00;2.88;;;15.30;99.90;;;;;;2078588;28;20105;-72
2023/10/05 03:45:28;;;;;;;8.65;2.67;;;15.30;99.90;;;;;;2075745;28;20108;-73
2023/10/05 03:46:29;;;;;;;6.53;2.42;;;15.30;99.90;;;;;;2076760;28;20018;-72
2023/10/05 03:47:39;;;;;;;8.98;3.03;;;15.30;99.90;;;;;;2065159;28;20469;-73
2023/10/05 03:48:41;;;;;;;8.82;3.40;;;15.30;99.90;;;;;;2068244;28;20391;-73
2023/10/05 03:49:54;;;;;;;8.18;2.97;;;15.30;99.90;;;;;;2076292;28;20026;-73
2023/10/05 03:50:55;;;;;;;11.80;3.90;;;15.20;99.90;;;;;;2077606;28;20025;-72
2023/10/05 03:51:55;;;;;;;6.55;3.00;;;15.20;99.90;;;;;;2076946;28;20037;-72
2023/10/05 03:52:56;;;;;;;9.18;3.22;;;15.30;99.90;;;;;;2076924;28;20024;-72
2023/10/05 03:53:57;;;;;;;11.45;3.33;;;15.20;99.90;;;;;;2077710;28;20013;-74
2023/10/05 03:55:01;;;;;;;10.45;3.10;;;15.20;99.90;;;;;;2077860;28;20139;-72
2023/10/05 03:56:02;;;;;;;9.43;3.30;;;15.20;99.90;;;;;;2075249;28;20080;-71
2023/10/05 03:57:10;;;;;;;9.25;3.08;;;15.20;99.90;;;;;;2077984;28;20026;-73
2023/10/05 03:58:11;;;;;;;6.38;2.85;;;15.20;99.90;;;;;;2077875;28;20045;-73
2023/10/05 03:59:12;;;;;;;11.32;3.40;;;15.20;99.90;;;;;;2076988;28;20128;-73
2023/10/05 04:00:23;;;;;;;8.93;3.67;;;15.20;99.90;;;;;;2074897;28;20041;-73
2023/10/05 04:01:23;;;;;;;9.98;3.50;;;15.20;99.90;;;;;;2075834;28;20025;-72
2023/10/05 04:02:25;;;;;;;10.90;4.00;;;15.20;99.90;;;;;;2076518;28;20022;-72
2023/10/05 04:03:26;;;;;;;8.00;3.05;;;15.20;99.90;;;;;;2076359;28;20087;-73
2023/10/05 04:04:28;;;;;;;9.38;3.60;;;15.20;99.90;;;;;;2078715;28;20024;-74
2023/10/05 04:05:30;;;;;;;7.03;3.05;;;15.20;99.90;;;;;;2076763;28;20025;-74
2023/10/05 04:06:31;;;;;;;10.85;3.47;;;15.20;99.90;;;;;;2075953;28;20121;-74
2023/10/05 04:07:31;;;;;;;10.43;3.60;;;15.20;99.90;;;;;;2074980;28;20022;-74
2023/10/05 04:08:33;;;;;;;8.43;3.65;;;15.20;99.90;;;;;;2077395;28;20049;-74
2023/10/05 04:09:35;;;;;;;9.85;3.38;;;15.20;99.90;;;;;;2077618;28;20032;-73
2023/10/05 04:10:49;;;;;;;10.10;3.05;;;15.20;99.90;;;;;;2077564;28;20021;-74
2023/10/05 04:11:50;;;;;;;10.45;3.83;;;15.20;99.90;;;;;;2068899;28;20033;-74
2023/10/05 04:12:54;;;;;;;8.00;3.30;;;15.20;99.90;;;;;;2069358;28;20018;-75
2023/10/05 04:13:55;;;;;;;8.45;3.22;;;15.10;99.90;;;;;;2077549;28;20041;-73
2023/10/05 04:14:57;;;;;;;8.07;3.17;;;15.10;99.90;;;;;;2074959;28;20033;-74
2023/10/05 04:15:59;;;;;;;10.80;2.92;;;15.10;99.90;;;;;;2077322;28;20034;-73
2023/10/05 04:17:07;;;;;;;9.02;2.85;;;15.10;99.90;;;;;;2077023;28;20032;-73
2023/10/05 04:18:11;;;;;;;9.60;3.60;;;15.10;99.90;;;;;;2077060;28;20025;-73
2023/10/05 04:19:12;;;;;;;11.27;3.10;;;15.10;99.90;;;;;;2077033;28;20456;-73
2023/10/05 04:21:13;;;;;;;7.15;3.33;;;15.10;99.90;;;;;;2077077;28;20437;-73
2023/10/05 04:21:46;;;;;;;6.30;3.38;;;15.10;99.90;;;;;;2064504;28;20041;-73
2023/10/05 04:22:49;;;;;;;9.27;3.45;;;15.10;99.90;;;;;;2076061;28;20045;-73
2023/10/05 04:23:50;;;;;;;9.20;3.58;;;15.10;99.90;;;;;;2075264;28;20460;-74
2023/10/05 04:24:50;;;;;;;15.20;3.53;;;15.10;99.90;;;;;;2075972;28;20380;-74
2023/10/05 04:25:54;;;;;;;9.40;3.17;;;15.10;99.90;;;;;;2076109;28;20129;-74
2023/10/05 04:26:55;;;;;;;9.27;2.90;;;15.10;99.90;;;;;;2076135;28;20030;-74
2023/10/05 04:27:55;;;;;;;12.30;3.28;;;15.00;99.90;;;;;;2078035;28;20037;-74
2023/10/05 04:28:57;;;;;;;8.20;3.03;;;15.00;99.90;;;;;;2067881;28;20052;-74
2023/10/05 04:29:58;;;;;;;8.30;3.47;;;15.10;99.90;;;;;;2067602;28;20026;-74
2023/10/05 04:30:59;;;;;;;9.00;3.63;;;15.00;99.90;;;;;;2076373;28;20026;-73
2023/10/05 04:32:00;;;;;;;6.35;2.78;;;15.00;99.90;;;;;;2066552;28;20075;-73
2023/10/05 04:33:03;;;;;;;7.50;3.33;;;15.00;99.90;;;;;;2067517;28;20465;-73
2023/10/05 04:34:11;;;;;;;9.43;3.28;;;15.00;99.90;;;;;;2075793;28;20021;-73
2023/10/05 04:35:28;;;;;;;7.78;3.13;;;15.10;99.90;;;;;;2078641;28;20085;-73
2023/10/05 04:36:30;;;;;;;6.70;3.08;;;15.00;99.90;;;;;;2069223;28;20095;-74
2023/10/05 04:37:30;;;;;;;8.57;2.85;;;15.00;99.90;;;;;;2068428;28;20517;-73
2023/10/05 04:38:32;;;;;;;7.95;3.13;;;15.00;99.90;;;;;;2076388;28;20390;-74
2023/10/05 04:39:33;;;;;;;8.32;3.00;;;15.00;99.90;;;;;;2077751;28;20021;-74
2023/10/05 04:40:35;;;;;;;7.28;2.72;;;15.00;99.90;;;;;;2077504;28;20519;-73
2023/10/05 04:41:39;;;;;;;8.63;3.28;;;15.00;99.90;;;;;;2076883;28;20022;-74
2023/10/05 04:42:41;;;;;;;8.38;2.83;;;15.00;99.90;;;;;;2076549;28;20021;-75
2023/10/05 04:43:43;;;;;;;11.50;2.95;;;15.00;99.90;;;;;;2076047;28;20366;-73
2023/10/05 04:44:46;;;;;;;8.27;3.00;;;15.00;99.90;;;;;;2068148;28;20032;-73
2023/10/05 04:45:47;;;;;;;6.78;3.70;;;15.00;99.90;;;;;;2064890;28;20034;-74
2023/10/05 04:46:49;;;;;;;10.48;3.60;;;15.00;99.90;;;;;;2074584;28;20067;-73
2023/10/05 04:47:49;;;;;;;7.63;2.92;;;15.00;99.90;;;;;;2076302;28;20489;-74
2023/10/05 04:49:01;;;;;;;5.78;3.05;;;15.00;99.90;;;;;;2076638;28;20424;-74
2023/10/05 04:50:05;;;;;;;10.45;4.03;;;15.00;99.90;;;;;;2078092;28;20109;-74
2023/10/05 04:51:06;;;;;;;11.50;3.63;;;15.00;99.90;;;;;;2078147;28;20057;-74
2023/10/05 04:52:06;;;;;;;9.80;3.40;;;15.00;99.90;;;;;;2076025;28;20493;-74
2023/10/05 04:53:13;;;;;;;8.68;3.33;;;15.00;99.90;;;;;;2076527;28;20496;-73
2023/10/05 04:54:18;;;;;;;9.95;3.42;;;15.00;99.90;;;;;;2077944;28;20030;-73
2023/10/05 04:55:23;;;;;;;8.95;3.15;;;15.00;99.90;;;;;;2075944;28;20048;-73
2023/10/05 04:57:49;;;;;;;7.28;2.83;;;15.00;99.90;;;;;;2077762;28;20025;-74
2023/10/05 04:58:53;;;;;;;10.48;3.50;;;15.00;99.90;;;;;;2076213;28;20072;-73
2023/10/05 05:00:48;;;;;;;7.65;3.03;;;14.90;99.90;;;;;;2076694;28;20029;-73
2023/10/05 05:01:29;;;;;;;9.32;3.42;;;14.90;99.90;;;;;;2075247;28;21078;-73
2023/10/05 05:02:58;;;;;;;8.80;3.45;;;14.90;99.90;;;;;;2076358;28;20029;-74
2023/10/05 05:04:00;;;;;;;10.90;3.30;;;14.90;99.90;;;;;;2076546;28;20045;-73
2023/10/05 05:06:20;;;;;;;8.60;3.50;;;14.90;99.90;;;;;;2075983;28;20029;-74
2023/10/05 05:07:21;;;;;;;9.00;2.85;;;14.90;99.90;;;;;;2074947;28;20034;-73
2023/10/05 05:08:22;;;;;;;19.00;4.00;;;14.90;99.90;;;;;;2077550;28;20029;-74
2023/10/05 05:09:29;;;;;;;10.85;3.53;;;14.80;99.90;;;;;;2078480;28;20043;-73
2023/10/05 05:10:31;;;;;;;6.97;2.95;;;14.90;99.90;;;;;;2068494;28;20065;-73
2023/10/05 05:11:31;;;;;;;4.97;2.60;;;14.80;99.90;;;;;;2069978;28;20792;-74
2023/10/05 05:12:32;;;;;;;7.72;2.92;;;14.90;99.90;;;;;;2077964;28;20386;-75
2023/10/05 05:13:32;;;;;;;11.35;3.40;;;14.90;99.90;;;;;;2076408;28;20107;-75
2023/10/05 05:14:35;;;;;;;8.93;2.85;;;14.90;99.90;;;;;;2077704;28;20025;-73
2023/10/05 05:15:38;;;;;;;8.95;2.83;;;14.80;99.90;;;;;;2077128;28;20687;-73
2023/10/05 05:16:40;;;;;;;7.95;3.28;;;14.80;99.90;;;;;;2076744;28;20519;-74
2023/10/05 05:17:42;;;;;;;7.25;2.80;;;14.90;99.90;;;;;;2077127;28;20452;-73
2023/10/05 05:18:43;;;;;;;8.93;3.70;;;14.80;99.90;;;;;;2076199;28;20033;-73
2023/10/05 05:19:44;;;;;;;8.15;3.05;;;14.80;99.90;;;;;;2076030;28;20044;-74
2023/10/05 05:20:45;;;;;;;10.80;3.50;;;14.80;99.90;;;;;;2068095;28;20033;-74
2023/10/05 05:21:46;;;;;;;10.48;3.80;;;14.90;99.90;;;;;;2060639;28;20094;-73
2023/10/05 05:22:46;;;;;;;9.60;3.80;;;14.90;99.90;;;;;;2068429;28;20032;-73
2023/10/05 05:23:47;;;;;;;8.07;3.05;;;14.90;99.90;;;;;;2078040;28;20018;-73
2023/10/05 05:24:50;;;;;;;8.13;2.97;;;14.80;99.90;;;;;;2076878;28;20022;-73
2023/10/05 05:25:54;;;;;;;9.32;3.15;;;14.80;99.90;;;;;;2066319;28;20509;-73
2023/10/05 05:27:00;;;;;;;10.25;3.05;;;14.90;99.90;;;;;;2068571;28;20022;-73
2023/10/05 05:28:05;;;;;;;6.45;3.22;;;14.90;99.90;;;;;;2075840;28;20024;-74
2023/10/05 05:29:05;;;;;;;7.10;2.92;;;14.90;99.90;;;;;;2075889;28;20088;-74
2023/10/05 05:30:23;;;;;;;7.47;3.40;;;14.80;99.90;;;;;;2076762;28;20042;-74
2023/10/05 05:31:24;;;;;;;14.07;3.40;;;14.80;99.90;;;;;;2074868;28;20042;-73
2023/10/05 05:32:25;;;;;;;7.32;3.25;;;14.80;99.90;;;;;;2076566;28;20033;-73
2023/10/05 05:33:25;;;;;;;7.95;2.90;;;14.80;99.90;;;;;;2076494;28;20077;-74
2023/10/05 05:34:26;;;;;;;10.38;3.78;;;14.90;99.90;;;;;;2076923;28;20453;-73
2023/10/05 05:35:28;;;;;;;9.23;3.45;;;14.90;99.90;;;;;;2076432;28;20816;-74
2023/10/05 05:36:29;;;;;;;9.88;3.30;;;14.90;99.90;;;;;;2076674;28;20079;-73
2023/10/05 05:37:29;;;;;;;8.30;3.20;;;14.90;99.90;;;;;;2075574;28;20108;-74
2023/10/05 05:38:30;;;;;;;8.85;4.10;;;14.90;99.90;;;;;;2075893;28;20025;-73